Tiempo atmosférico en la estación meteorológica de Arucas, Las Palmas (86 m.)



Fecha
DESCASC
Temp. máxima en grados centígrados (hora)
DESCASC
Temp. mínima en grados centígrados (hora)
DESCASC
Temp. media en grados centígrados
DESCASC
Racha de viento máxima en m/sg (hora)
DESCASC
Velocidad máxima media en intervalos de 10 minutos(hora)
DESCASC
Precipitaciones diarias en mm
DESCASC
Precipitaciones de 00:00 a 06:00 en mm
DESCASC
Precipitaciones de 06:00 a 12:00 en mm
DESCASC
Precipitaciones de 12:00 a 18:00 en mm
DESCASC
Precipitaciones de 18:00 a 24:00 en mm
DESCASC
19-01-2020 20.4 (12:00) 15.3 (08:10) 17.8 6.39 (01:40) 3.89 (01:10) 0 0 0 0 0
18-01-2020 21.5 (13:10) 14.5 (06:00) 18 12.22 (12:50) 7.5 (12:30) 0 0 0 0 0
17-01-2020 21.3 (12:30) 14.7 (08:00) 18 10.83 (13:10) 6.94 (14:10) 0 0 0 0 0
16-01-2020 22 (14:10) 11.5 (00:00) 16.8 7.5 (15:00) 4.17 (14:40) 0 0 0 0 0
15-01-2020 21.6 (13:20) 13.7 (00:00) 17.7 11.11 (12:00) 5.83 (12:20) 0 0 0 0 0
14-01-2020 22.3 (12:30) 14 (00:00) 18.1 10 (11:00) 6.11 (11:00) 0 0 0 0 0
13-01-2020 22.9 (14:10) 14.3 (00:00) 18.6 10 (13:50) 6.11 (12:50) 0 0 0 0 0
12-01-2020 19.2 (14:20) 14.6 (00:00) 16.9 9.44 (14:50) 6.11 (14:50) 0 0 0 0 0
11-01-2020 18.9 (14:30) 16 (00:00) 17.4 8.33 (03:10) 4.72 (14:40) 0 0 0 0 0
10-01-2020 19.8 (13:20) 16.3 (00:00) 18 8.61 (11:00) 4.44 (10:40) 3.4 0.2 3 0 0.2
09-01-2020 20.4 (14:40) 16.7 (00:00) 18.6 8.06 (19:30) 4.72 (18:30) 0 0 0 0 0
08-01-2020 20.4 (13:30) 16.6 (00:00) 18.5 7.22 (10:20) 3.89 (09:20) 0 0 0 0 0
07-01-2020 19.8 (13:50) 16.6 (00:00) 18.2 9.44 (01:00) 5.28 (00:50) 0 0 0 0 0
06-01-2020 20.2 (13:30) 16.7 (00:00) 18.5 9.72 (21:10) 5 (05:20) 0 0 0 0 0
05-01-2020 20.6 (13:00) 15.1 (00:00) 17.9 5.83 (03:20) 3.06 (08:10) 0 0 0 0 0
04-01-2020 20 (12:50) 14.7 (00:00) 17.3 8.33 (13:50) 5 (14:00) 0 0 0 0 0
03-01-2020 19.8 (12:40) 14.8 (00:00) 17.3 12.5 (12:30) 7.78 (11:30) 0 0 0 0 0
02-01-2020 19.1 (12:20) 14.2 (00:00) 16.7 11.94 (12:10) 7.5 (10:10) 0 0 0 0 0
01-01-2020 19.9 (11:50) 14.9 (00:00) 17.4 12.22 (13:00) 7.78 (13:00) 0 0 0 0 0
31-12-2019 22 (14:20) 14 (00:00) 18 11.94 (11:50) 7.5 (12:00) 0 0 0 0 0
30-12-2019 -- (--) -- (--) -- -- (--) -- (--) -- 0 0 -- 0
29-12-2019 25.4 (14:10) 15.4 (00:00) 20.4 10.28 (13:10) 6.39 (12:30) 0 0 0 0 0
28-12-2019 26.1 (14:00) 18.3 (00:00) 22.2 10.56 (10:00) 6.39 (08:40) 0 0 0 0 0
27-12-2019 25.5 (14:10) 17.3 (00:00) 21.4 12.22 (10:00) 7.22 (10:00) 0 0 0 0 0
26-12-2019 23.7 (16:50) 16.1 (00:00) 19.9 10 (15:50) 6.11 (15:50) 0 0 0 0 0
25-12-2019 25.4 (12:40) 15.3 (00:00) 20.3 10.28 (11:30) 6.39 (11:30) 0 0 0 0 0
24-12-2019 27.3 (12:40) 14.6 (00:00) 20.9 10 (03:10) 5.56 (03:10) 0 0 0 0 0
23-12-2019 22.8 (13:20) 15.2 (00:00) 19 7.78 (00:30) 5 (00:30) 0 0 0 0 0

Gráficas

Temp. máximas Temp. mínimas Temp. medias Precipitaciones Rachas de viento máximas Velocidades máximas media en intervalos de 10 minutos

Datos horarios

Fecha y hora oficial Temperatura (ºC) Velocidad del viento (km/h) Dirección del viento Racha (km/h) Dirección de racha Precipitación (mm) Presión (hPa) Tendencia (hPa) Humedad (%)
2020-01-21 22:00:00 -- -- -- -- -- -- -- -- --
2020-01-21 21:00:00 15 7 Sudoeste 14 Oeste 0 -- -- 71
2020-01-21 20:00:00 14.8 6 Oeste 14 Sudoeste 0 -- -- 73
2020-01-21 19:00:00 15 7 Sudoeste 22 Norte 0 -- -- 72
2020-01-21 18:00:00 15.9 8 Noroeste 19 Noroeste 0 -- -- 69
2020-01-21 17:00:00 16.9 9 Noroeste 19 Noroeste 0 -- -- 60
2020-01-21 16:00:00 17.3 10 Noroeste 24 Noroeste 0 -- -- 59
2020-01-21 15:00:00 18.1 12 Noroeste 22 Noroeste 0 -- -- 55
2020-01-21 14:00:00 17.8 8 Noroeste 21 Oeste 0 -- -- 56
2020-01-21 13:00:00 17.6 10 Oeste 22 Noroeste 0 -- -- 55
2020-01-21 12:00:00 17.3 8 Noroeste 30 Noroeste 0 -- -- 57
2020-01-21 11:00:00 16.6 10 Noroeste 26 Norte 0 -- -- 63
2020-01-21 10:00:00 16.5 9 Noroeste 22 Noroeste 0 -- -- 62
2020-01-21 09:00:00 15.8 11 Noroeste 24 Noroeste 0 -- -- 62
2020-01-21 08:00:00 16.1 13 Noroeste 29 Noroeste 0 -- -- 59
2020-01-21 07:00:00 15.9 8 Noroeste 25 Oeste 0 -- -- 64
2020-01-21 06:00:00 15.9 14 Noroeste 27 Noroeste 0 -- -- 63
2020-01-21 05:00:00 15.8 11 Noroeste 31 Noroeste 0 -- -- 64
2020-01-21 04:00:00 15.8 10 Noroeste 28 Noroeste 0 -- -- 69
2020-01-21 03:00:00 16.2 12 Noroeste 26 Noroeste 0 -- -- 62
2020-01-21 02:00:00 15.9 9 Noroeste 29 Noroeste 0 -- -- 64
2020-01-21 01:00:00 15.9 9 Noroeste 26 Norte 0 -- -- 67
2020-01-21 00:00:00 14.5 9 Oeste 26 Norte 0 -- -- 85
2020-01-20 23:00:00 14.9 8 Oeste 24 Noroeste 0.2 -- -- 82
2020-01-20 22:00:00 15.9 14 Noroeste 35 Noroeste 0 -- -- 75
2020-01-20 21:00:00 16.7 10 Noroeste 30 Norte 0 -- -- 65
2020-01-20 20:00:00 16.8 11 Noroeste 28 Noroeste 0 -- -- 61
2020-01-20 19:00:00 16.9 13 Norte 28 Norte 0 -- -- 62
2020-01-20 18:00:00 17.1 15 Norte 29 Norte 0 -- -- 66
2020-01-20 17:00:00 17.4 8 Noroeste 23 Norte 0 -- -- 68
2020-01-20 16:00:00 17.7 9 Noroeste 27 Norte 0 -- -- 66
2020-01-20 15:00:00 19.3 9 Norte 21 Noroeste 0 -- -- 61
2020-01-20 14:00:00 18.6 10 Noroeste 23 Noroeste 0 -- -- 63
2020-01-20 13:00:00 19.1 12 Noroeste 20 Oeste 0 -- -- 61
2020-01-20 12:00:00 16.4 10 Noroeste 28 Norte 0 -- -- 74
2020-01-20 11:00:00 16.9 8 Noroeste 24 Norte 0 -- -- 74
2020-01-20 10:00:00 16.5 11 Noroeste 27 Norte 0 -- -- 72
2020-01-20 09:00:00 16.4 9 Norte 21 Noroeste 0 -- -- 68
2020-01-20 08:00:00 16.4 9 Noroeste 28 Norte 0 -- -- 64
2020-01-20 07:00:00 16.4 11 Noroeste 28 Norte 0 -- -- 66
2020-01-20 06:00:00 16.5 12 Norte 27 Norte 0 -- -- 65
2020-01-20 05:00:00 16.8 17 Norte 33 Norte 0 -- -- 68
2020-01-20 04:00:00 17 10 Norte 30 Norte 0 -- -- 70
2020-01-20 03:00:00 16.8 7 Norte 19 Norte 0 -- -- 71
2020-01-20 02:00:00 17.3 8 Nordeste 20 Norte 0 -- -- 76
2020-01-20 01:00:00 17.4 8 Nordeste 19 Norte 0 -- -- 86
2020-01-20 00:00:00 17.4 8 Nordeste 20 Norte 0 -- -- 87
2020-01-19 23:00:00 17.7 8 Nordeste 17 Nordeste 0 -- -- 83
2020-01-19 22:00:00 17.3 3 Sudeste 11 Nordeste 0 -- -- 81
2020-01-19 21:00:00 17.4 8 Nordeste 17 Este 0 -- -- 80
2020-01-19 20:00:00 17.6 9 Este 17 Nordeste 0 -- -- 84
2020-01-19 19:00:00 17.6 9 Este 17 Nordeste 0 -- -- 82
2020-01-19 18:00:00 18 9 Este 17 Nordeste 0 -- -- 78
2020-01-19 17:00:00 19 9 Este 17 Este 0 -- -- 75
2020-01-19 16:00:00 19.4 9 Nordeste 19 Nordeste 0 -- -- 75
2020-01-19 15:00:00 19.7 9 Nordeste 18 Nordeste 0 -- -- 74
2020-01-19 14:00:00 20.3 11 Nordeste 21 Nordeste 0 -- -- 73
2020-01-19 13:00:00 20.2 12 Nordeste 18 Este 0 -- -- 72
2020-01-19 12:00:00 20.4 10 Este 20 Este 0 -- -- 69
2020-01-19 11:00:00 19.8 12 Este 19 Este 0 -- -- 68
2020-01-19 10:00:00 18.4 14 Este 21 Este 0 -- -- 77
2020-01-19 09:00:00 17.4 10 Sudeste 19 Sudeste 0 -- -- 77
2020-01-19 08:00:00 15.4 9 Sudeste 17 Sudeste 0 -- -- 33
2020-01-19 07:00:00 17 10 Sudeste 21 Sur 0 -- -- 35
2020-01-19 06:00:00 17 12 Sur 21 Sudeste 0 -- -- 44
2020-01-19 05:00:00 16.9 13 Sudeste 21 Sudeste 0 -- -- 42
2020-01-19 04:00:00 17.3 14 Sudeste 22 Sur 0 -- -- 41
2020-01-19 03:00:00 17 12 Sur 20 Sudeste 0 -- -- 44
2020-01-19 02:00:00 17 13 Sur 23 Sudeste 0 -- -- 44
2020-01-19 01:00:00 17.3 14 Sur 22 Sudeste 0 -- -- 44
2020-01-19 00:00:00 16.7 13 Sudeste 23 Sudeste 0 -- -- 45
2020-01-18 23:00:00 16.8 13 Sudeste 18 Sudeste 0 -- -- 59
2020-01-18 22:00:00 17 12 Sudeste 18 Sudeste 0 -- -- 55
2020-01-18 21:00:00 16.3 11 Sudeste 14 Sudeste 0 -- -- 42
2020-01-18 20:00:00 16 8 Sudeste 13 Este 0 -- -- 41
2020-01-18 19:00:00 17.3 8 Sudeste 20 Sudeste 0 -- -- 54
2020-01-18 18:00:00 19 14 Sudeste 23 Este 0 -- -- 49
2020-01-18 17:00:00 20 17 Este 29 Este 0 -- -- 47
2020-01-18 16:00:00 20.1 21 Este 32 Este 0 -- -- 52
2020-01-18 15:00:00 20.7 21 Este 36 Este 0 -- -- 47
2020-01-18 14:00:00 21.2 20 Este 41 Este 0 -- -- 42
2020-01-18 13:00:00 21.3 26 Este 44 Este 0 -- -- 36
2020-01-18 12:00:00 21.3 21 Este 37 Sudeste 0 -- -- 38
2020-01-18 11:00:00 21.1 24 Sudeste 39 Sudeste 0 -- -- 28
2020-01-18 10:00:00 20.2 19 Sudeste 30 Sudeste 0 -- -- 34
2020-01-18 09:00:00 18 16 Sudeste 26 Sudeste 0 -- -- 41
2020-01-18 08:00:00 15.1 10 Sudeste 17 Sudeste 0 -- -- 45
2020-01-18 07:00:00 14.7 12 Sudeste 19 Este 0 -- -- 45
2020-01-18 06:00:00 14.5 7 Sudeste 15 Sudeste 0 -- -- 69
2020-01-18 05:00:00 14.8 12 Sudeste 22 Sudeste 0 -- -- 62
2020-01-18 04:00:00 15 11 Sudeste 20 Sudeste 0 -- -- 63
2020-01-18 03:00:00 14.8 10 Sudeste 19 Sudeste 0 -- -- 53
2020-01-18 02:00:00 15.3 15 Sur 25 Sudeste 0 -- -- 73
2020-01-18 01:00:00 15.6 11 Sur 15 Sudeste 0 -- -- 73
2020-01-18 00:00:00 15.7 9 Sudeste 14 Sudeste 0 -- -- 69
2020-01-17 23:00:00 16.1 10 Sur 15 Sudeste 0 -- -- 69
2020-01-17 22:00:00 15.7 10 Sudeste 15 Sudeste 0 -- -- 61
2020-01-17 21:00:00 15.8 9 Sudeste 15 Sudeste 0 -- -- 55
2020-01-17 20:00:00 16.2 11 Sudeste 17 Sudeste 0 -- -- 48
2020-01-17 19:00:00 16.9 10 Sudeste 20 Sudeste 0 -- -- 56
2020-01-17 18:00:00 18.4 13 Sudeste 29 Sudeste 0 -- -- 48
2020-01-17 17:00:00 19.7 18 Sudeste 33 Este 0 -- -- 49
2020-01-17 16:00:00 20.8 18 Sudeste 34 Sudeste 0 -- -- 40
2020-01-17 15:00:00 21 21 Este 38 Sudeste 0 -- -- 33
2020-01-17 14:00:00 20.6 22 Sudeste 39 Sudeste 0 -- -- 39
2020-01-17 13:00:00 20.5 24 Sudeste 37 Este 0 -- -- 40
2020-01-17 12:00:00 20.1 16 Este 32 Sudeste 0 -- -- 43
2020-01-17 11:00:00 19.4 21 Sudeste 35 Este 0 -- -- 47
2020-01-17 10:00:00 18.5 15 Sudeste 26 Este 0 -- -- 49
2020-01-17 09:00:00 16.1 11 Sudeste 22 Sudeste 0 -- -- 47
2020-01-17 08:00:00 14.7 10 Sur 19 Sur 0 -- -- 46
2020-01-17 07:00:00 14.8 11 Sur 17 Sudeste 0 -- -- 63
2020-01-17 06:00:00 14.9 12 Sur 18 Sur 0 -- -- 62
2020-01-17 05:00:00 15.4 15 Sur 20 Sudeste 0 -- -- 60
2020-01-17 04:00:00 15.4 11 Sudeste 19 Sur 0 -- -- 47
2020-01-17 03:00:00 15.6 12 Sur 19 Sur 0 -- -- 43
2020-01-17 02:00:00 15.6 11 Sur 15 Sur 0 -- -- 46
2020-01-17 01:00:00 15.6 10 Sur 15 Sur 0 -- -- 43
2020-01-17 00:00:00 15.9 9 Sudeste 14 Sudeste 0 -- -- 37
2020-01-16 23:00:00 16.2 8 Sudeste 18 Sudeste 0 -- -- 35
2020-01-16 22:00:00 16.7 12 Sur 18 Sur 0 -- -- 34
2020-01-16 21:00:00 17.1 10 Sur 17 Sur 0 -- -- 33
2020-01-16 20:00:00 17.3 10 Sur 16 Sur 0 -- -- 35
2020-01-16 19:00:00 17.5 9 Sudeste 14 Sudeste 0 -- -- 36
2020-01-16 18:00:00 19.1 8 Sudeste 20 Este 0 -- -- 32
2020-01-16 17:00:00 20.7 13 Este 22 Este 0 -- -- 30
2020-01-16 16:00:00 21.3 12 Este 26 Este 0 -- -- 34
2020-01-16 15:00:00 21.7 14 Este 27 Este 0 -- -- 38
2020-01-16 14:00:00 21.9 12 Este 23 Nordeste 0 -- -- 40
2020-01-16 13:00:00 21.4 14 Este 23 Este 0 -- -- 48
2020-01-16 12:00:00 20.8 14 Este 26 Este 0 -- -- 53
2020-01-16 11:00:00 20 12 Este 19 Este 0 -- -- 56
2020-01-16 10:00:00 18.5 9 Este 15 Sudeste 0 -- -- 62
2020-01-16 09:00:00 16.6 11 Sur 18 Sur 0 -- -- 58
2020-01-16 08:00:00 15.4 12 Sur 19 Sur 0 -- -- 55
2020-01-16 07:00:00 15.3 13 Sur 19 Sudeste 0 -- -- 42
2020-01-16 06:00:00 14.8 12 Sur 17 Sur 0 -- -- 44
2020-01-16 05:00:00 14.4 7 Sur 11 Sudoeste 0 -- -- 51
2020-01-16 04:00:00 15.1 9 Sur 20 Sur 0 -- -- 60
2020-01-16 03:00:00 14.6 11 Sur 19 Sur 0 -- -- 46
2020-01-16 02:00:00 14.4 8 Sur 12 Sur 0 -- -- 51
2020-01-16 01:00:00 11.7 0 Calma 8 Sudoeste 0 -- -- 45
2020-01-16 00:00:00 13.7 5 Sudoeste 10 Sudoeste 0 -- -- 41
2020-01-15 23:00:00 15.3 6 Sur 13 Sur 0 -- -- 34
2020-01-15 22:00:00 15.4 6 Sur 15 Sur 0 -- -- 35
2020-01-15 21:00:00 16.1 6 Sur 15 Sur 0 -- -- 36
2020-01-15 20:00:00 16.6 8 Sur 15 Sur 0 -- -- 36
2020-01-15 19:00:00 17 9 Sur 17 Sudeste 0 -- -- 45
2020-01-15 18:00:00 18.4 10 Sudeste 22 Sudeste 0 -- -- 50
2020-01-15 17:00:00 19.9 13 Sudeste 25 Sudeste 0 -- -- 51
2020-01-15 16:00:00 20.6 14 Sudeste 31 Sudeste 0 -- -- 46
2020-01-15 15:00:00 21.1 18 Sudeste 33 Este 0 -- -- 41
2020-01-15 14:00:00 21.6 21 Sudeste 38 Sudeste 0 -- -- 34
2020-01-15 13:00:00 21.2 17 Este 32 Sudeste 0 -- -- 42
2020-01-15 12:00:00 20.5 20 Sudeste 40 Sudeste 0 -- -- 47
2020-01-15 11:00:00 20.6 11 Sudeste 31 Sudeste 0 -- -- 37
2020-01-15 10:00:00 18.4 10 Sur 16 Sur 0 -- -- 36
2020-01-15 09:00:00 16.4 11 Sur 18 Sur 0 -- -- 36
2020-01-15 08:00:00 15.3 15 Sur 23 Sur 0 -- -- 40
2020-01-15 07:00:00 15.5 14 Sur 24 Sur 0 -- -- 50
2020-01-15 06:00:00 15.4 15 Sur 21 Sur 0 -- -- 43
2020-01-15 05:00:00 14.4 9 Sur 16 Sur 0 -- -- 47
2020-01-15 04:00:00 14.7 8 Sur 15 Sur 0 -- -- 51
2020-01-15 03:00:00 15.2 8 Sur 15 Sur 0 -- -- 47
2020-01-15 02:00:00 15.1 10 Sudoeste 16 Sudoeste 0 -- -- 68
2020-01-15 01:00:00 15.1 11 Sudoeste 15 Sudoeste 0 -- -- 68
2020-01-15 00:00:00 15 9 Sudoeste 13 Sudoeste 0 -- -- 63
2020-01-14 23:00:00 14.8 9 Sudoeste 13 Sudoeste 0 -- -- 57
2020-01-14 22:00:00 16 8 Sur 18 Sur 0 -- -- 53
2020-01-14 21:00:00 15.8 7 Sur 15 Sudoeste 0 -- -- 56
2020-01-14 20:00:00 16.1 10 Sudoeste 15 Sudoeste 0 -- -- 60
2020-01-14 19:00:00 16.9 8 Sudoeste 14 Sudoeste 0 -- -- 58
2020-01-14 18:00:00 18.9 6 Oeste 14 Oeste 0 -- -- 51
2020-01-14 17:00:00 20.5 8 Noroeste 15 Norte 0 -- -- 47
2020-01-14 16:00:00 21.3 6 Norte 18 Norte 0 -- -- 47
2020-01-14 15:00:00 20.9 9 Noroeste 19 Noroeste 0 -- -- 52
2020-01-14 14:00:00 21.7 10 Noroeste 20 Oeste 0 -- -- 43
2020-01-14 13:00:00 21.9 6 Noroeste 33 Sudeste 0 -- -- 41
2020-01-14 12:00:00 22 17 Sudeste 36 Sudeste 0 -- -- 30
2020-01-14 11:00:00 21 22 Sudeste 36 Sudeste 0 -- -- 34
2020-01-14 10:00:00 19.8 9 Sur 20 Sur 0 -- -- 37
2020-01-14 09:00:00 17.9 10 Sur 20 Sudeste 0 -- -- 35
2020-01-14 08:00:00 15.9 10 Sur 24 Sur 0 -- -- 37
2020-01-14 07:00:00 16.1 13 Sur 21 Sur 0 -- -- 37
2020-01-14 06:00:00 15 13 Sudeste 19 Sur 0 -- -- 50
2020-01-14 05:00:00 15.5 13 Sudeste 20 Sudeste 0 -- -- 40
2020-01-14 04:00:00 16.5 8 Sur 20 Sur 0 -- -- 42
2020-01-14 03:00:00 16.2 14 Sur 30 Sur 0 -- -- 53
2020-01-14 02:00:00 16.1 15 Sur 23 Sudeste 0 -- -- 64
2020-01-14 01:00:00 16.2 13 Sur 21 Sur 0 -- -- 51
2020-01-14 00:00:00 15.5 6 Sur 14 Sur 0 -- -- 52
2020-01-13 23:00:00 14.3 4 Sudeste 13 Sudoeste 0 -- -- 76
2020-01-13 22:00:00 15.3 7 Sudoeste 11 Sudoeste 0 -- -- 72
2020-01-13 21:00:00 15.6 6 Sur 12 Sur 0 -- -- 70
2020-01-13 20:00:00 16 5 Sudoeste 10 Sudoeste 0 -- -- 75
2020-01-13 19:00:00 16.4 2 Sur 7 Oeste 0 -- -- 73
2020-01-13 18:00:00 19.7 5 Oeste 13 Oeste 0 -- -- 61
2020-01-13 17:00:00 21.3 6 Norte 23 Este 0 -- -- 46
2020-01-13 16:00:00 21.6 7 Nordeste 23 Este 0 -- -- 51
2020-01-13 15:00:00 22.4 8 Oeste 32 Sudeste 0 -- -- 45
2020-01-13 14:00:00 22.6 19 Sudeste 36 Sudeste 0 -- -- 41
2020-01-13 13:00:00 21.6 21 Sudeste 34 Sudeste 0 -- -- 53
2020-01-13 12:00:00 20.9 17 Sudeste 31 Sudeste 0 -- -- 60
2020-01-13 11:00:00 19.8 14 Sudeste 25 Este 0 -- -- 61
2020-01-13 10:00:00 18.3 14 Sudeste 22 Sudeste 0 -- -- 67
2020-01-13 09:00:00 16.1 10 Sudeste 17 Sudeste 0 -- -- 76
2020-01-13 08:00:00 15.3 13 Sur 20 Sur 0 -- -- 76
2020-01-13 07:00:00 15.4 10 Sur 18 Sudeste 0 -- -- 72
2020-01-13 06:00:00 15.5 11 Sudeste 16 Sur 0 -- -- 69
2020-01-13 05:00:00 15.3 9 Sur 14 Sudeste 0 -- -- 77
2020-01-13 04:00:00 15.5 8 Sur 17 Sur 0 -- -- 75
2020-01-13 03:00:00 15.3 11 Sur 18 Sur 0 -- -- 74
2020-01-13 02:00:00 15.3 9 Sur 17 Sudeste 0 -- -- 73
2020-01-13 01:00:00 15.5 10 Sur 18 Sur 0 -- -- 70
2020-01-13 00:00:00 14.7 9 Este 18 Sur 0 -- -- 71
2020-01-12 23:00:00 15.5 10 Sur 16 Sudeste 0 -- -- 68
2020-01-12 22:00:00 15.7 10 Sur 17 Sur 0 -- -- 62
2020-01-12 21:00:00 15.4 12 Sur 18 Sur 0 -- -- 60
2020-01-12 20:00:00 15.5 8 Sudeste 13 Sudeste 0 -- -- 65
2020-01-12 19:00:00 14.6 4 Sudeste 12 Este 0 -- -- 68
2020-01-12 18:00:00 17.6 8 Este 21 Este 0 -- -- 59
2020-01-12 17:00:00 18.8 13 Este 26 Sudeste 0 -- -- 63
2020-01-12 16:00:00 19.2 14 Este 30 Este 0 -- -- 56
2020-01-12 15:00:00 19.1 20 Este 34 Este 0 -- -- 61
2020-01-12 14:00:00 18.9 20 Este 32 Este 0 -- -- 65
2020-01-12 13:00:00 18.5 15 Este 26 Este 0 -- -- 63
2020-01-12 12:00:00 18 14 Este 22 Este 0 -- -- 65
2020-01-12 11:00:00 18.5 12 Este 22 Este 0 -- -- 61
2020-01-12 10:00:00 17.4 9 Este 18 Este 0 -- -- 70
2020-01-12 09:00:00 16.9 6 Sudeste 13 Nordeste 0 -- -- 70
2020-01-12 08:00:00 17 7 Este 16 Nordeste 0 -- -- 71
2020-01-12 07:00:00 17 10 Este 22 Nordeste 0 -- -- 67
2020-01-12 06:00:00 17 9 Nordeste 20 Nordeste 0 -- -- 69
2020-01-12 05:00:00 17.1 11 Nordeste 18 Nordeste 0 -- -- 70
2020-01-12 04:00:00 16.9 6 Nordeste 23 Nordeste 0 -- -- 74
2020-01-12 03:00:00 17 4 Nordeste 17 Nordeste 0 -- -- 70
2020-01-12 02:00:00 17.1 9 Nordeste 22 Nordeste 0 -- -- 73
2020-01-12 01:00:00 17.3 12 Norte 24 Norte 0 -- -- 73
2020-01-12 00:00:00 17.3 8 Nordeste 17 Norte 0 -- -- 70
2020-01-11 23:00:00 17.2 8 Nordeste 20 Norte 0 -- -- 67
2020-01-11 22:00:00 16.8 12 Norte 27 Norte 0 -- -- 78
2020-01-11 21:00:00 16.1 4 Sudoeste 26 Nordeste 0 -- -- 80
2020-01-11 20:00:00 17.1 9 Norte 22 Norte 0 -- -- 71
2020-01-11 19:00:00 17.2 5 Noroeste 22 Nordeste 0 -- -- 63
2020-01-11 18:00:00 17.3 10 Norte 25 Norte 0 -- -- 70
2020-01-11 17:00:00 17.3 10 Norte 26 Norte 0 -- -- 77
2020-01-11 16:00:00 17.7 7 Noroeste 24 Norte 0 -- -- 75
2020-01-11 15:00:00 18.1 16 Norte 27 Norte 0 -- -- 75
2020-01-11 14:00:00 18.8 10 Nordeste 21 Nordeste 0 -- -- 63
2020-01-11 13:00:00 17.9 3 Noroeste 9 Oeste 0 -- -- 74
2020-01-11 12:00:00 18 3 Nordeste 20 Norte 0 -- -- 74
2020-01-11 11:00:00 18.2 5 Nordeste 22 Norte 0 -- -- 67
2020-01-11 10:00:00 17.5 2 Sur 16 Norte 0 -- -- 74
2020-01-11 09:00:00 17.1 2 Sudoeste 9 Norte 0 -- -- 69
2020-01-11 08:00:00 17 6 Norte 24 Norte 0 -- -- 66
2020-01-11 07:00:00 17.1 9 Norte 20 Norte 0 -- -- 69
2020-01-11 06:00:00 17 11 Norte 27 Nordeste 0 -- -- 69
2020-01-11 05:00:00 17.2 10 Norte 21 Norte 0 -- -- 69
2020-01-11 04:00:00 17.4 7 Nordeste 30 Nordeste 0 -- -- 70
2020-01-11 03:00:00 17.4 10 Nordeste 24 Nordeste 0 -- -- 77
2020-01-11 02:00:00 17.4 8 Nordeste 18 Nordeste 0 -- -- 80
2020-01-11 01:00:00 17.5 9 Nordeste 21 Nordeste 0 -- -- 81
2020-01-11 00:00:00 16.7 3 Nordeste 23 Norte 0.2 -- -- 89
2020-01-10 23:00:00 17.7 7 Norte 17 Nordeste 0 -- -- 82
2020-01-10 22:00:00 18.1 8 Nordeste 15 Norte 0 -- -- 76
2020-01-10 21:00:00 18 8 Nordeste 21 Nordeste 0 -- -- 76
2020-01-10 20:00:00 18 7 Norte 21 Nordeste 0 -- -- 83
2020-01-10 19:00:00 18.4 11 Nordeste 23 Este 0 -- -- 65
2020-01-10 18:00:00 18.5 10 Nordeste 27 Nordeste 0 -- -- 68
2020-01-10 17:00:00 18.5 11 Nordeste 22 Norte 0 -- -- 72
2020-01-10 16:00:00 18.9 7 Nordeste 18 Nordeste 0 -- -- 76
2020-01-10 15:00:00 19 10 Nordeste 19 Este 0 -- -- 72
2020-01-10 14:00:00 19.5 8 Nordeste 22 Nordeste 0 -- -- 73
2020-01-10 13:00:00 19.2 12 Nordeste 24 Nordeste 0 -- -- 75
2020-01-10 12:00:00 19.1 11 Este 26 Norte 0 -- -- 75
2020-01-10 11:00:00 18.5 14 Nordeste 31 Nordeste 0 -- -- 78
2020-01-10 10:00:00 17.6 9 Nordeste 25 Este 0 -- -- 89
2020-01-10 09:00:00 16.6 8 Este 26 Norte 2.2 -- -- 92
2020-01-10 08:00:00 16.5 5 Sudeste 8 Sur 0.2 -- -- 89
2020-01-10 07:00:00 16.5 7 Este 21 Nordeste 0.6 -- -- 89
2020-01-10 06:00:00 17.6 8 Nordeste 21 Nordeste 0 -- -- 80
2020-01-10 05:00:00 17.7 6 Nordeste 22 Nordeste 0 -- -- 78
2020-01-10 04:00:00 17.7 8 Nordeste 23 Nordeste 0 -- -- 73
2020-01-10 03:00:00 17.5 10 Nordeste 26 Nordeste 0 -- -- 76
2020-01-10 02:00:00 16.9 2 Nordeste 26 Nordeste 0.2 -- -- 81
2020-01-10 01:00:00 17.7 5 Nordeste 21 Nordeste 0 -- -- 69
2020-01-10 00:00:00 17.7 5 Nordeste 15 Norte 0 -- -- 69
2020-01-09 23:00:00 17.5 3 Norte 25 Norte 0 -- -- 64
2020-01-09 22:00:00 17.8 12 Norte 27 Norte 0 -- -- 69
2020-01-09 21:00:00 17.8 9 Norte 26 Norte 0 -- -- 64
2020-01-09 20:00:00 17.7 14 Norte 29 Norte 0 -- -- 66
2020-01-09 19:00:00 17.8 10 Norte 26 Norte 0 -- -- 70
2020-01-09 18:00:00 18.1 10 Norte 23 Norte 0 -- -- 69
2020-01-09 17:00:00 18.3 10 Norte 22 Norte 0 -- -- 69
2020-01-09 16:00:00 19.4 10 Norte 21 Norte 0 -- -- 64
2020-01-09 15:00:00 19.8 10 Norte 22 Norte 0 -- -- 64
2020-01-09 14:00:00 19.7 9 Nordeste 22 Norte 0 -- -- 61
2020-01-09 13:00:00 19.1 9 Norte 21 Norte 0 -- -- 64
2020-01-09 12:00:00 19 9 Nordeste 23 Norte 0 -- -- 61
2020-01-09 11:00:00 19 14 Norte 22 Norte 0 -- -- 61
2020-01-09 10:00:00 17.9 5 Nordeste 18 Norte 0 -- -- 70
2020-01-09 09:00:00 17.9 5 Nordeste 22 Nordeste 0 -- -- 68
2020-01-09 08:00:00 17.3 10 Nordeste 21 Este 0 -- -- 72
2020-01-09 07:00:00 17.1 8 Norte 18 Norte 0 -- -- 70
2020-01-09 06:00:00 17.1 9 Norte 18 Norte 0 -- -- 69
2020-01-09 05:00:00 17 9 Nordeste 16 Nordeste 0 -- -- 72
2020-01-09 04:00:00 17 7 Nordeste 15 Nordeste 0 -- -- 73
2020-01-09 03:00:00 16.7 6 Nordeste 17 Nordeste 0 -- -- 69
2020-01-09 02:00:00 17.2 9 Nordeste 20 Nordeste 0 -- -- 69
2020-01-09 01:00:00 17.1 8 Nordeste 22 Nordeste 0 -- -- 69
2020-01-09 00:00:00 17.3 9 Nordeste 21 Nordeste 0 -- -- 72
2020-01-08 23:00:00 17.5 11 Nordeste 23 Nordeste 0 -- -- 72
2020-01-08 22:00:00 17.3 5 Nordeste 18 Nordeste 0 -- -- 71
2020-01-08 21:00:00 17.4 8 Nordeste 22 Nordeste 0 -- -- 69
2020-01-08 20:00:00 17.4 7 Nordeste 19 Norte 0 -- -- 69
2020-01-08 19:00:00 17.5 10 Nordeste 22 Nordeste 0 -- -- 69
2020-01-08 18:00:00 17.9 12 Nordeste 24 Nordeste 0 -- -- 70
2020-01-08 17:00:00 18.9 7 Nordeste 16 Nordeste 0 -- -- 66
2020-01-08 16:00:00 19.7 8 Nordeste 16 Nordeste 0 -- -- 63
2020-01-08 15:00:00 20.1 9 Nordeste 18 Nordeste 0 -- -- 59
2020-01-08 14:00:00 20.3 9 Nordeste 20 Este 0 -- -- 59
2020-01-08 13:00:00 18.8 10 Nordeste 19 Nordeste 0 -- -- 65
2020-01-08 12:00:00 18.9 10 Nordeste 22 Nordeste 0 -- -- 67
2020-01-08 11:00:00 18 10 Nordeste 26 Nordeste 0 -- -- 70
2020-01-08 10:00:00 18.7 12 Nordeste 25 Nordeste 0 -- -- 69
2020-01-08 09:00:00 17.3 9 Nordeste 23 Este 0 -- -- 73
2020-01-08 08:00:00 16.9 9 Este 20 Este 0 -- -- 73
2020-01-08 07:00:00 16.8 9 Este 18 Nordeste 0 -- -- 73
2020-01-08 06:00:00 16.8 10 Nordeste 23 Nordeste 0 -- -- 71
2020-01-08 05:00:00 16.9 8 Nordeste 21 Nordeste 0 -- -- 74
2020-01-08 04:00:00 16.9 9 Nordeste 21 Nordeste 0 -- -- 71
2020-01-08 03:00:00 16.9 10 Nordeste 20 Nordeste 0 -- -- 74
2020-01-08 02:00:00 16.9 10 Nordeste 17 Nordeste 0 -- -- 74
2020-01-08 01:00:00 17 9 Nordeste 19 Nordeste 0 -- -- 73
2020-01-08 00:00:00 17.1 9 Nordeste 21 Nordeste 0 -- -- 72
2020-01-07 23:00:00 17.3 10 Nordeste 21 Nordeste 0 -- -- 70
2020-01-07 22:00:00 17.4 11 Nordeste 24 Nordeste 0 -- -- 73
2020-01-07 21:00:00 17.5 14 Nordeste 31 Nordeste 0 -- -- 76
2020-01-07 20:00:00 17.6 13 Nordeste 24 Nordeste 0 -- -- 75
2020-01-07 19:00:00 17.7 9 Nordeste 21 Nordeste 0 -- -- 76
2020-01-07 18:00:00 17.9 8 Nordeste 18 Nordeste 0 -- -- 74
2020-01-07 17:00:00 18.7 7 Nordeste 17 Nordeste 0 -- -- 68
2020-01-07 16:00:00 19.2 9 Nordeste 17 Nordeste 0 -- -- 63
2020-01-07 15:00:00 19.3 10 Nordeste 17 Nordeste 0 -- -- 63
2020-01-07 14:00:00 19.5 11 Nordeste 21 Este 0 -- -- 64
2020-01-07 13:00:00 19.6 14 Este 23 Este 0 -- -- 63
2020-01-07 12:00:00 18.9 12 Este 23 Este 0 -- -- 66
2020-01-07 11:00:00 17.9 12 Este 24 Este 0 -- -- 68
2020-01-07 10:00:00 17.9 17 Este 33 Este 0 -- -- 67
2020-01-07 09:00:00 17.2 16 Este 28 Este 0 -- -- 71
2020-01-07 08:00:00 16.7 15 Este 33 Este 0 -- -- 73
2020-01-07 07:00:00 16.7 15 Este 29 Este 0 -- -- 69
2020-01-07 06:00:00 16.9 13 Este 26 Este 0 -- -- 73
2020-01-07 05:00:00 16.8 12 Este 27 Nordeste 0 -- -- 76
2020-01-07 04:00:00 17.1 10 Nordeste 22 Nordeste 0 -- -- 72
2020-01-07 03:00:00 17.2 11 Nordeste 24 Nordeste 0 -- -- 66
2020-01-07 02:00:00 17.2 11 Norte 27 Norte 0 -- -- 77
2020-01-07 01:00:00 17.1 17 Norte 34 Norte 0 -- -- 75
2020-01-07 00:00:00 17.4 12 Norte 26 Norte 0 -- -- 74
2020-01-06 23:00:00 17.3 10 Nordeste 29 Norte 0 -- -- 74
2020-01-06 22:00:00 17.3 14 Norte 35 Norte 0 -- -- 72
2020-01-06 21:00:00 17.4 17 Norte 34 Norte 0 -- -- 76
2020-01-06 20:00:00 17.7 12 Norte 28 Norte 0 -- -- 75
2020-01-06 19:00:00 17.3 8 Noroeste 24 Norte 0 -- -- 71
2020-01-06 18:00:00 17.6 9 Norte 23 Noroeste 0 -- -- 71
2020-01-06 17:00:00 18.7 10 Norte 21 Norte 0 -- -- 67
2020-01-06 16:00:00 18.8 11 Norte 24 Noroeste 0 -- -- 65
2020-01-06 15:00:00 19.8 10 Norte 21 Norte 0 -- -- 61
2020-01-06 14:00:00 20 13 Norte 23 Norte 0 -- -- 62
2020-01-06 13:00:00 20.1 10 Norte 22 Norte 0 -- -- 62
2020-01-06 12:00:00 19.4 9 Norte 24 Norte 0 -- -- 64
2020-01-06 11:00:00 19.4 10 Norte 27 Norte 0 -- -- 63
2020-01-06 10:00:00 18.4 10 Norte 21 Norte 0 -- -- 69
2020-01-06 09:00:00 18.2 9 Norte 23 Norte 0 -- -- 66